Terminal Aerodrome Forecast
Issued by NWS

Home | Current Version | Previous Version | Text Only | Print | Product List | Glossary On
Versions: 1 2 3 4 5 6 7 8 9 10 11 12 13 14 15 16 17 18 19 20 21 22 23 24 25 26 27
000
FTUS41 KOKX 272327
TAFTEB
TAF
KTEB 272327Z 2800/2824 18006KT P6SM VCSH SCT050 BKN100
      TEMPO 2801/2802 5SM SHRA BKN050
     FM280200 VRB04KT P6SM SCT050 SCT150
     FM280700 VRB03KT P6SM BKN050
     FM281600 25004KT P6SM SCT050 SCT150
     FM281900 18007KT P6SM SCT050 SCT150=

USA.gov is the U.S. government's official web portal to all federal, state and local government web resources and services.